createdAt,value
2019-05-01T05:02:17.471Z,86.90
2019-05-01T05:04:47.618Z,87.70
2019-05-01T05:07:17.848Z,87.30
2019-05-01T05:09:47.995Z,86.20
2019-05-01T05:12:35.235Z,86.40
2019-05-01T05:15:17.004Z,86.80
2019-05-01T05:17:47.001Z,87.00
2019-05-01T05:20:17.997Z,85.60
2019-05-01T05:22:48.381Z,86.50
2019-05-01T05:25:18.619Z,86.60
2019-05-01T05:27:50.841Z,86.10
2019-05-01T05:30:22.117Z,85.40
2019-05-01T05:32:53.918Z,85.30
2019-05-01T05:35:26.062Z,84.50
2019-05-01T05:37:59.973Z,84.30
2019-05-01T05:40:32.043Z,84.40
2019-05-01T05:43:02.575Z,84.00
2019-05-01T05:45:33.631Z,83.80
2019-05-01T05:48:04.034Z,83.40
2019-05-01T05:50:53.697Z,83.50
2019-05-01T05:53:38.950Z,83.00
2019-05-01T05:56:13.650Z,81.90
2019-05-01T05:58:54.750Z,82.20
2019-05-01T06:01:34.338Z,83.00
2019-05-01T06:04:09.959Z,81.60
2019-05-01T06:06:43.875Z,81.20
2019-05-01T06:09:16.338Z,80.50
2019-05-01T06:11:48.471Z,80.90
2019-05-01T06:14:38.276Z,80.30
2019-05-01T06:17:28.641Z,80.90
2019-05-01T06:19:58.816Z,80.70
2019-05-01T06:22:31.469Z,79.90
2019-05-01T06:25:06.638Z,79.70
2019-05-01T06:27:37.143Z,80.00
2019-05-01T06:30:11.123Z,79.60
2019-05-01T06:32:42.308Z,80.30
2019-05-01T06:35:12.609Z,80.70
2019-05-01T06:38:03.981Z,80.00
2019-05-01T06:40:39.713Z,78.70
2019-05-01T06:43:29.694Z,78.70
2019-05-01T06:46:13.696Z,78.80
2019-05-01T06:48:53.421Z,79.40
2019-05-01T06:51:34.253Z,80.20
2019-05-01T06:54:11.227Z,80.20
2019-05-01T06:56:41.936Z,80.30
2019-05-01T06:59:14.143Z,80.20
2019-05-01T07:01:45.077Z,79.80
2019-05-01T07:04:15.380Z,79.60
2019-05-01T07:06:45.616Z,79.60
2019-05-01T07:09:27.326Z,79.20
2019-05-01T07:11:52.743Z,78.80
2019-05-01T07:14:19.664Z,79.00
2019-05-01T07:16:49.694Z,77.80
2019-05-01T07:19:21.594Z,77.80
2019-05-01T07:21:51.630Z,77.50
2019-05-01T07:24:24.147Z,78.70
2019-05-01T07:26:53.301Z,78.20
2019-05-01T07:29:24.950Z,78.80
2019-05-01T07:31:54.922Z,79.30
2019-05-01T07:34:26.205Z,78.90
2019-05-01T07:36:56.584Z,79.00
2019-05-01T07:39:26.570Z,78.40
2019-05-01T07:41:58.420Z,78.30
2019-05-01T07:44:35.814Z,77.40
2019-05-01T07:47:25.863Z,77.70
2019-05-01T07:49:58.632Z,77.00
2019-05-01T07:52:28.857Z,77.00
2019-05-01T07:54:59.577Z,75.80
2019-05-01T07:57:34.371Z,75.80
2019-05-01T08:00:03.664Z,75.80
2019-05-01T08:02:34.414Z,76.00
2019-05-01T08:05:10.071Z,75.70
2019-05-01T08:07:38.062Z,74.70
2019-05-01T08:10:08.804Z,74.80
2019-05-01T08:12:39.117Z,74.60
2019-05-01T08:15:09.736Z,74.30
2019-05-01T08:17:41.341Z,74.30
2019-05-01T08:20:16.802Z,72.80
2019-05-01T08:22:46.776Z,73.30
2019-05-01T08:25:16.839Z,73.00
2019-05-01T08:27:50.958Z,71.70
2019-05-01T08:30:22.059Z,71.60
2019-05-01T08:32:53.889Z,72.20
2019-05-01T08:35:25.554Z,71.90
2019-05-01T08:37:58.516Z,70.70
2019-05-01T08:40:27.317Z,71.00
2019-05-01T08:42:57.231Z,71.40
2019-05-01T08:45:47.012Z,71.60
2019-05-01T08:48:35.235Z,71.30
2019-05-01T08:51:02.595Z,71.00
2019-05-01T08:53:33.034Z,70.10
2019-05-01T08:56:03.559Z,70.10
2019-05-01T08:58:33.588Z,69.50
2019-05-01T09:01:05.231Z,69.80
2019-05-01T09:03:36.889Z,69.90
2019-05-01T09:06:08.070Z,69.40
2019-05-01T09:08:38.454Z,68.50
2019-05-01T09:11:09.186Z,67.70
2019-05-01T09:13:39.218Z,66.80
2019-05-01T09:16:09.833Z,66.50
2019-05-01T09:18:39.817Z,65.20
2019-05-01T09:21:10.276Z,65.80
2019-05-01T09:23:40.700Z,64.60
2019-05-01T09:26:28.738Z,65.00
2019-05-01T09:29:03.261Z,66.20
2019-05-01T09:31:35.569Z,65.60
2019-05-01T09:34:09.256Z,65.20
2019-05-01T09:36:38.430Z,63.80
2019-05-01T09:39:10.267Z,63.50
2019-05-01T09:41:43.148Z,63.40
2019-05-01T09:44:12.551Z,63.20
2019-05-01T09:46:42.691Z,63.40
2019-05-01T09:49:14.229Z,64.40
2019-05-01T09:51:50.100Z,63.80
2019-05-01T09:54:23.188Z,63.80
2019-05-01T09:56:53.609Z,62.40
2019-05-01T09:59:24.138Z,62.70
2019-05-01T10:01:54.665Z,62.00
2019-05-01T10:04:29.635Z,61.90
2019-05-01T10:06:57.131Z,60.50
2019-05-01T10:09:27.683Z,60.50
2019-05-01T10:11:58.416Z,60.50
2019-05-01T10:14:31.709Z,59.30
2019-05-01T10:17:01.111Z,57.20
2019-05-01T10:19:31.695Z,56.60
2019-05-01T10:22:03.789Z,56.40
2019-05-01T10:24:37.786Z,56.30
2019-05-01T10:27:09.060Z,56.60
2019-05-01T10:30:01.595Z,56.00
2019-05-01T10:32:36.946Z,55.10
2019-05-01T10:35:09.112Z,54.70
2019-05-01T10:37:39.539Z,54.80
2019-05-01T10:40:10.175Z,55.00
2019-05-01T10:42:41.158Z,55.00
2019-05-01T10:45:11.943Z,54.80
2019-05-01T10:47:42.366Z,54.80
2019-05-01T10:50:14.021Z,54.30
2019-05-01T10:52:44.344Z,54.00
2019-05-01T10:55:14.676Z,54.00
2019-05-01T10:57:45.195Z,53.00
2019-05-01T11:00:17.622Z,51.90
2019-05-01T11:02:48.223Z,50.80
2019-05-01T11:05:18.736Z,50.50
2019-05-01T11:07:49.252Z,50.60
2019-05-01T11:10:19.679Z,49.40
2019-05-01T11:12:50.209Z,48.80
2019-05-01T11:15:20.839Z,49.00
2019-05-01T11:17:51.472Z,48.40
2019-05-01T11:20:21.995Z,48.70
2019-05-01T11:22:55.087Z,47.70
2019-05-01T11:25:25.920Z,47.90
2019-05-01T11:27:56.084Z,50.10
2019-05-01T11:30:26.771Z,50.90
2019-05-01T11:33:01.843Z,50.80
2019-05-01T11:35:50.354Z,50.00
2019-05-01T11:38:22.524Z,49.70
2019-05-01T11:40:54.587Z,49.00
2019-05-01T11:43:25.165Z,47.60
2019-05-01T11:45:55.744Z,46.90
2019-05-01T11:48:30.109Z,46.90
2019-05-01T11:51:01.067Z,47.60
2019-05-01T11:53:32.242Z,47.60
2019-05-01T11:56:02.873Z,46.30
2019-05-01T11:58:33.403Z,47.00
2019-05-01T12:01:04.953Z,47.60
2019-05-01T12:03:35.481Z,46.90
2019-05-01T12:06:06.115Z,46.90
2019-05-01T12:08:36.751Z,47.20
2019-05-01T12:11:08.911Z,46.60
2019-05-01T12:13:43.806Z,46.60
2019-05-01T12:16:18.568Z,46.70
2019-05-01T12:18:50.427Z,46.00
2019-05-01T12:21:20.749Z,45.70
2019-05-01T12:23:51.278Z,46.00
2019-05-01T12:26:21.601Z,45.40
2019-05-01T12:28:51.718Z,44.20
2019-05-01T12:31:21.733Z,44.50
2019-05-01T12:33:51.751Z,44.90
2019-05-01T12:36:21.888Z,44.80
2019-05-01T12:38:52.398Z,44.90
2019-05-01T12:41:24.361Z,45.40
2019-05-01T12:43:54.989Z,45.00
2019-05-01T12:46:43.234Z,44.70
2019-05-01T12:49:15.807Z,44.70
2019-05-01T12:51:47.005Z,44.60
2019-05-01T12:54:19.223Z,44.20
2019-05-01T12:56:54.362Z,42.90
2019-05-01T12:59:24.782Z,42.70
2019-05-01T13:01:55.064Z,42.90
2019-05-01T13:04:25.122Z,43.60
2019-05-01T13:06:58.095Z,43.10
2019-05-01T13:09:28.334Z,43.50
2019-05-01T13:11:58.552Z,43.10
2019-05-01T13:14:29.722Z,44.00
2019-05-01T13:16:59.668Z,42.80
2019-05-01T13:19:30.134Z,42.60
2019-05-01T13:22:00.210Z,42.60
2019-05-01T13:24:30.476Z,43.50
2019-05-01T13:27:02.210Z,43.90
2019-05-01T13:29:34.398Z,45.70
2019-05-01T13:32:15.677Z,46.10
2019-05-01T13:34:46.204Z,45.70
2019-05-01T13:37:16.633Z,45.80
2019-05-01T13:39:46.962Z,46.00
2019-05-01T13:42:17.686Z,46.60
2019-05-01T13:44:49.339Z,46.60
2019-05-01T13:47:19.867Z,46.60
2019-05-01T13:49:50.290Z,46.30
2019-05-01T13:52:20.414Z,46.00
2019-05-01T13:54:50.941Z,45.30
2019-05-01T13:57:21.674Z,44.80
2019-05-01T13:59:52.100Z,44.40
2019-05-01T14:02:22.399Z,44.10
2019-05-01T14:04:52.746Z,44.80
2019-05-01T14:07:23.382Z,44.50
2019-05-01T14:09:53.808Z,44.40
2019-05-01T14:12:24.333Z,44.50
2019-05-01T14:14:54.756Z,45.20
2019-05-01T14:17:25.290Z,44.60
2019-05-01T14:20:00.324Z,44.90
2019-05-01T14:22:32.382Z,44.90
2019-05-01T14:25:05.168Z,45.30
2019-05-01T14:27:35.793Z,46.40
2019-05-01T14:30:10.056Z,45.70
2019-05-01T14:32:40.741Z,46.00
2019-05-01T14:35:11.693Z,46.80
2019-05-01T14:37:42.104Z,47.50
2019-05-01T14:40:13.939Z,47.70
2019-05-01T14:42:44.190Z,47.00
2019-05-01T14:45:14.923Z,46.50
2019-05-01T14:47:45.240Z,46.30
2019-05-01T14:50:16.588Z,46.20
2019-05-01T14:52:46.807Z,46.80
2019-05-01T14:55:17.336Z,46.70
2019-05-01T14:57:48.414Z,46.40
2019-05-01T15:00:20.267Z,47.10
2019-05-01T15:02:50.864Z,45.90
2019-05-01T15:05:21.499Z,45.80
2019-05-01T15:07:53.151Z,46.30
2019-05-01T15:10:23.571Z,46.60
2019-05-01T15:12:55.746Z,47.20
2019-05-01T15:15:30.982Z,46.60
2019-05-01T15:18:12.363Z,46.90
2019-05-01T15:20:42.995Z,47.40
2019-05-01T15:23:14.871Z,47.70
2019-05-01T15:25:45.586Z,48.30
2019-05-01T15:28:18.477Z,48.10
2019-05-01T15:30:49.205Z,47.60
2019-05-01T15:33:20.039Z,47.60
2019-05-01T15:35:50.797Z,47.50
2019-05-01T15:38:21.408Z,48.60
2019-05-01T15:41:05.856Z,49.60
2019-05-01T15:43:43.758Z,50.20
2019-05-01T15:46:14.388Z,50.10
2019-05-01T15:48:45.020Z,49.60
2019-05-01T15:51:15.751Z,49.10
2019-05-01T15:53:46.256Z,50.10
2019-05-01T15:56:18.036Z,50.20
2019-05-01T15:58:48.358Z,50.60
2019-05-01T16:01:19.090Z,50.20
2019-05-01T16:03:49.725Z,50.10
2019-05-01T16:06:20.355Z,49.40
2019-05-01T16:08:52.008Z,49.60
2019-05-01T16:11:33.184Z,49.20
2019-05-01T16:14:04.021Z,49.30
2019-05-01T16:16:34.651Z,49.70
2019-05-01T16:19:06.510Z,49.90
2019-05-01T16:21:37.244Z,50.00
2019-05-01T16:24:08.078Z,50.30
2019-05-01T16:26:38.605Z,49.80
2019-05-01T16:29:10.260Z,50.20
2019-05-01T16:31:42.036Z,50.10
2019-05-01T16:34:13.776Z,50.80
2019-05-01T16:36:44.507Z,50.90
2019-05-01T16:39:16.877Z,50.80
2019-05-01T16:41:48.942Z,51.30
2019-05-01T16:44:19.675Z,51.20
2019-05-01T16:46:50.408Z,51.50
2019-05-01T16:49:21.087Z,51.30
2019-05-01T16:51:53.134Z,51.70
2019-05-01T16:54:25.207Z,52.10
2019-05-01T16:56:57.420Z,52.00
2019-05-01T16:59:28.070Z,51.30
2019-05-01T17:02:09.450Z,51.10
2019-05-01T17:04:50.625Z,51.00
2019-05-01T17:07:32.828Z,52.00
2019-05-01T17:10:14.209Z,51.50
2019-05-01T17:12:50.677Z,51.90
2019-05-01T17:15:22.976Z,52.00
2019-05-01T17:17:57.813Z,52.40
2019-05-01T17:20:29.387Z,52.60
2019-05-01T17:23:00.593Z,53.20
2019-05-01T17:25:31.333Z,53.70
2019-05-01T17:28:08.137Z,54.00
2019-05-01T17:30:41.372Z,54.30
2019-05-01T17:33:20.034Z,54.50
2019-05-01T17:35:45.605Z,54.90
2019-05-01T17:38:17.257Z,54.90
2019-05-01T17:40:52.038Z,53.60
2019-05-01T17:43:23.950Z,53.60
2019-05-01T17:45:59.695Z,53.60
2019-05-01T17:48:34.889Z,53.90
2019-05-01T17:51:05.732Z,54.40
2019-05-01T17:53:37.732Z,55.20
2019-05-01T17:56:10.216Z,55.50
2019-05-01T17:58:41.859Z,56.20
2019-05-01T18:01:16.997Z,56.40
2019-05-01T18:03:53.973Z,56.60
2019-05-01T18:06:26.347Z,56.50
2019-05-01T18:09:03.311Z,56.70
2019-05-01T18:11:30.990Z,57.20
2019-05-01T18:14:01.725Z,57.50
2019-05-01T18:16:32.716Z,57.60
2019-05-01T18:19:09.853Z,58.10
2019-05-01T18:21:46.875Z,58.30
2019-05-01T18:24:24.689Z,58.30
2019-05-01T18:27:14.660Z,58.40
2019-05-01T18:29:45.763Z,58.50
2019-05-01T18:32:18.671Z,58.60
2019-05-01T18:34:50.487Z,59.10
2019-05-01T18:37:39.451Z,59.40
2019-05-01T18:40:14.478Z,59.90
2019-05-01T18:42:45.218Z,60.10
2019-05-01T18:45:20.139Z,60.10
2019-05-01T18:47:52.209Z,60.40
2019-05-01T18:50:22.941Z,60.90
2019-05-01T18:52:56.750Z,60.80
2019-05-01T18:55:30.379Z,60.80
2019-05-01T18:57:59.851Z,60.60
2019-05-01T19:00:30.688Z,61.10
2019-05-01T19:03:04.264Z,61.10
2019-05-01T19:05:43.141Z,62.20
2019-05-01T19:08:16.096Z,61.70
2019-05-01T19:10:49.188Z,61.70
2019-05-01T19:13:22.578Z,62.30
2019-05-01T19:15:54.618Z,63.10
2019-05-01T19:18:28.038Z,62.70
2019-05-01T19:20:59.976Z,63.40
2019-05-01T19:23:33.420Z,63.70
2019-05-01T19:26:06.786Z,64.50
2019-05-01T19:28:37.846Z,64.60
2019-05-01T19:31:09.988Z,64.20
2019-05-01T19:33:41.886Z,64.30
2019-05-01T19:36:16.155Z,64.40
2019-05-01T19:38:47.832Z,65.00
2019-05-01T19:41:22.221Z,64.40
2019-05-01T19:43:56.976Z,64.90
2019-05-01T19:46:28.857Z,64.30
2019-05-01T19:48:59.462Z,64.90
2019-05-01T19:51:31.693Z,65.10
2019-05-01T19:54:03.852Z,65.60
2019-05-01T19:56:34.679Z,65.70
2019-05-01T19:59:10.892Z,65.50
2019-05-01T20:01:44.576Z,65.20
2019-05-01T20:04:16.528Z,65.50
2019-05-01T20:06:47.787Z,65.20
2019-05-01T20:09:18.616Z,65.50
2019-05-01T20:11:51.191Z,65.90
2019-05-01T20:14:21.945Z,66.80
2019-05-01T20:16:55.753Z,67.30
2019-05-01T20:19:27.921Z,67.40
2019-05-01T20:21:58.650Z,67.50
2019-05-01T20:24:29.972Z,67.80
2019-05-01T20:27:00.833Z,68.30
2019-05-01T20:29:32.179Z,68.00
2019-05-01T20:32:04.039Z,67.50
2019-05-01T20:34:35.319Z,67.90
2019-05-01T20:37:06.733Z,68.30
2019-05-01T20:39:39.238Z,68.80
2019-05-01T20:42:10.452Z,68.90
2019-05-01T20:44:41.186Z,68.60
2019-05-01T20:47:11.814Z,68.80
2019-05-01T20:49:42.536Z,68.70
2019-05-01T20:52:14.413Z,69.20
2019-05-01T20:54:44.936Z,69.10
2019-05-01T20:57:27.085Z,69.20
2019-05-01T21:00:00.538Z,70.30
2019-05-01T21:02:31.778Z,69.90
2019-05-01T21:05:22.478Z,70.40
2019-05-01T21:07:56.658Z,70.10
2019-05-01T21:10:29.922Z,71.40
2019-05-01T21:13:01.230Z,71.80
2019-05-01T21:15:31.989Z,71.20
2019-05-01T21:18:02.696Z,71.60
2019-05-01T21:20:33.890Z,72.20
2019-05-01T21:23:10.530Z,73.10
2019-05-01T21:25:36.842Z,73.20
2019-05-01T21:28:08.804Z,73.30
2019-05-01T21:44:49.557Z,75.10
2019-05-01T21:47:20.084Z,75.80
2019-05-01T21:49:52.959Z,76.30
2019-05-01T21:52:26.600Z,76.50
2019-05-01T21:54:55.498Z,76.40
2019-05-01T21:57:29.577Z,76.70
2019-05-01T21:59:58.055Z,76.90
2019-05-01T22:02:28.040Z,77.20
2019-05-01T22:04:58.010Z,77.60
2019-05-01T22:07:29.087Z,78.70
2019-05-01T22:09:59.065Z,78.00
